createdAt,value
2018-09-25T00:00:07.385Z,12.59
2018-09-25T00:01:48.269Z,12.31
2018-09-25T00:03:29.343Z,12.30
2018-09-25T00:05:10.232Z,12.38
2018-09-25T00:06:51.069Z,12.18
2018-09-25T00:08:31.879Z,12.15
2018-09-25T00:10:12.697Z,12.30
2018-09-25T00:11:53.505Z,12.48
2018-09-25T00:13:34.253Z,12.55
2018-09-25T00:15:15.189Z,12.11
2018-09-25T00:16:56.153Z,12.18
2018-09-25T00:18:36.937Z,12.28
2018-09-25T00:20:17.813Z,12.23
2018-09-25T00:21:58.565Z,12.29
2018-09-25T00:23:39.921Z,12.34
2018-09-25T00:25:20.784Z,12.23
2018-09-25T00:27:01.690Z,12.20
2018-09-25T00:28:42.638Z,12.25
2018-09-25T00:30:23.538Z,12.25
2018-09-25T00:32:04.288Z,12.37
2018-09-25T00:33:45.190Z,12.06
2018-09-25T00:35:25.968Z,12.20
2018-09-25T00:37:06.857Z,12.43
2018-09-25T00:38:47.706Z,12.13
2018-09-25T00:40:28.452Z,11.84
2018-09-25T00:42:09.278Z,12.03
2018-09-25T00:43:50.187Z,12.09
2018-09-25T00:45:31.009Z,12.01
2018-09-25T00:47:12.235Z,12.09
2018-09-25T00:48:53.011Z,12.09
2018-09-25T00:50:33.799Z,12.22
2018-09-25T00:52:14.772Z,11.94
2018-09-25T00:53:56.366Z,11.86
2018-09-25T00:55:37.308Z,11.87
2018-09-25T00:57:18.448Z,12.00
2018-09-25T00:58:59.307Z,12.08
2018-09-25T01:00:40.372Z,11.90
2018-09-25T01:02:21.351Z,12.02
2018-09-25T01:04:02.259Z,11.79
2018-09-25T01:05:43.124Z,11.97
2018-09-25T01:07:24.130Z,11.83
2018-09-25T01:09:05.006Z,11.73
2018-09-25T01:10:45.891Z,11.68
2018-09-25T01:12:26.774Z,11.73
2018-09-25T01:14:07.708Z,11.79
2018-09-25T01:15:49.126Z,11.70
2018-09-25T01:17:30.040Z,11.91
2018-09-25T01:19:11.020Z,11.60
2018-09-25T01:20:51.747Z,11.67
2018-09-25T01:22:33.114Z,11.59
2018-09-25T01:24:14.158Z,11.81
2018-09-25T01:25:55.103Z,11.87
2018-09-25T01:27:36.042Z,11.73
2018-09-25T01:29:16.965Z,11.65
2018-09-25T01:30:57.790Z,11.92
2018-09-25T01:32:38.551Z,11.74
2018-09-25T01:34:19.406Z,11.86
2018-09-25T01:36:00.261Z,11.98
2018-09-25T01:37:41.284Z,11.90
2018-09-25T01:39:22.087Z,11.81
2018-09-25T01:41:03.011Z,11.66
2018-09-25T01:42:44.228Z,11.72
2018-09-25T01:44:25.349Z,11.72
2018-09-25T01:46:06.408Z,11.57
2018-09-25T01:47:47.238Z,11.67
2018-09-25T01:49:28.258Z,11.66
2018-09-25T01:51:09.069Z,11.70
2018-09-25T01:52:49.859Z,11.76
2018-09-25T01:54:30.720Z,11.48
2018-09-25T01:56:11.549Z,11.73
2018-09-25T01:57:52.358Z,11.57
2018-09-25T01:59:33.219Z,11.62
2018-09-25T02:01:14.171Z,11.59
2018-09-25T02:02:55.006Z,11.67
2018-09-25T02:04:35.976Z,11.65
2018-09-25T02:06:16.906Z,11.63
2018-09-25T02:07:57.663Z,11.44
2018-09-25T02:09:38.501Z,11.44
2018-09-25T02:11:19.432Z,11.60
2018-09-25T02:13:00.193Z,11.65
2018-09-25T02:14:41.085Z,11.70
2018-09-25T02:16:21.961Z,11.49
2018-09-25T02:18:02.885Z,11.51
2018-09-25T02:19:43.753Z,11.57
2018-09-25T02:21:24.684Z,11.49
2018-09-25T02:23:05.384Z,11.45
2018-09-25T02:24:46.207Z,11.54
2018-09-25T02:26:27.144Z,11.35
2018-09-25T02:28:07.946Z,11.49
2018-09-25T02:29:48.882Z,11.57
2018-09-25T02:31:29.824Z,11.30
2018-09-25T02:33:10.735Z,11.26
2018-09-25T02:34:51.666Z,11.23
2018-09-25T02:36:32.529Z,11.08
2018-09-25T02:38:13.423Z,11.22
2018-09-25T02:39:54.297Z,11.22
2018-09-25T02:41:35.085Z,11.34
2018-09-25T02:43:16.030Z,11.47
2018-09-25T02:44:56.996Z,11.54
2018-09-25T02:46:37.847Z,11.38
2018-09-25T02:48:18.717Z,11.47
2018-09-25T02:49:59.516Z,11.48
2018-09-25T02:51:40.348Z,11.33
2018-09-25T02:53:21.250Z,11.43
2018-09-25T02:55:02.533Z,11.54
2018-09-25T02:56:43.374Z,11.50
2018-09-25T02:58:24.340Z,11.47
2018-09-25T03:00:05.333Z,11.57
2018-09-25T03:01:46.305Z,11.49
2018-09-25T03:03:27.115Z,11.43
2018-09-25T03:05:08.027Z,11.26
2018-09-25T03:06:48.969Z,11.27
2018-09-25T03:08:29.888Z,11.09
2018-09-25T03:10:11.291Z,11.14
2018-09-25T03:11:52.098Z,11.21
2018-09-25T03:13:32.916Z,11.22
2018-09-25T03:15:14.175Z,11.11
2018-09-25T03:16:54.931Z,11.16
2018-09-25T03:18:35.836Z,11.15
2018-09-25T03:20:16.786Z,11.09
2018-09-25T03:21:57.752Z,11.05
2018-09-25T03:23:38.767Z,11.02
2018-09-25T03:25:19.679Z,11.20
2018-09-25T03:27:00.632Z,11.09
2018-09-25T03:28:41.662Z,11.21
2018-09-25T03:30:22.713Z,11.25
2018-09-25T03:32:03.544Z,11.26
2018-09-25T03:33:44.388Z,11.09
2018-09-25T03:35:25.451Z,11.38
2018-09-25T03:37:06.215Z,11.33
2018-09-25T03:38:47.018Z,11.08
2018-09-25T03:40:27.865Z,11.24
2018-09-25T03:42:08.755Z,11.24
2018-09-25T03:43:50.016Z,11.27
2018-09-25T03:45:30.898Z,11.23
2018-09-25T03:47:11.804Z,11.01
2018-09-25T03:48:52.831Z,11.08
2018-09-25T03:50:33.747Z,11.25
2018-09-25T03:52:14.637Z,11.36
2018-09-25T03:53:55.572Z,11.32
2018-09-25T03:55:36.387Z,11.28
2018-09-25T03:57:17.259Z,11.16
2018-09-25T03:58:58.090Z,11.35
2018-09-25T04:00:39.037Z,11.25
2018-09-25T04:02:19.982Z,11.41
2018-09-25T04:04:00.877Z,11.34
2018-09-25T04:05:41.859Z,11.23
2018-09-25T04:07:22.850Z,10.97
2018-09-25T04:09:04.222Z,11.09
2018-09-25T04:10:45.246Z,11.18
2018-09-25T04:12:26.530Z,11.17
2018-09-25T04:14:07.385Z,11.07
2018-09-25T04:15:48.232Z,11.14
2018-09-25T04:17:29.109Z,10.88
2018-09-25T04:19:09.987Z,10.21
2018-09-25T04:20:50.910Z,11.05
2018-09-25T04:22:32.569Z,10.81
2018-09-25T04:24:13.459Z,10.89
2018-09-25T04:25:54.318Z,10.96
2018-09-25T04:27:35.306Z,10.84
2018-09-25T04:29:16.164Z,11.01
2018-09-25T04:30:57.038Z,10.90
2018-09-25T04:32:37.893Z,11.03
2018-09-25T04:34:18.806Z,11.02
2018-09-25T04:35:59.801Z,11.10
2018-09-25T04:37:40.723Z,11.20
2018-09-25T04:39:21.876Z,11.02
2018-09-25T04:41:02.899Z,10.92
2018-09-25T04:42:43.696Z,11.10
2018-09-25T04:44:24.544Z,11.15
2018-09-25T04:46:05.831Z,11.09
2018-09-25T04:47:46.636Z,11.15
2018-09-25T04:49:27.418Z,11.18
2018-09-25T04:51:08.219Z,11.09
2018-09-25T04:52:49.298Z,10.89
2018-09-25T04:54:30.136Z,10.99
2018-09-25T04:56:11.061Z,11.05
2018-09-25T04:57:51.900Z,11.03
2018-09-25T04:59:32.872Z,11.03
2018-09-25T05:01:13.684Z,10.96
2018-09-25T05:02:54.472Z,10.86
2018-09-25T05:04:35.337Z,11.00
2018-09-25T05:06:16.508Z,11.00
2018-09-25T05:07:57.401Z,10.94
2018-09-25T05:09:38.245Z,11.00
2018-09-25T05:11:19.196Z,11.02
2018-09-25T05:13:00.112Z,11.14
2018-09-25T05:14:41.085Z,11.08
2018-09-25T05:16:21.916Z,11.02
2018-09-25T05:18:03.818Z,11.12
2018-09-25T05:19:45.247Z,10.93
2018-09-25T05:21:26.348Z,10.99
2018-09-25T05:23:07.235Z,11.03
2018-09-25T05:24:48.379Z,10.75
2018-09-25T05:26:29.283Z,10.86
2018-09-25T05:28:10.631Z,10.83
2018-09-25T05:29:51.558Z,10.84
2018-09-25T05:31:32.409Z,10.99
2018-09-25T05:33:13.353Z,11.11
2018-09-25T05:34:54.212Z,11.07
2018-09-25T05:36:35.029Z,11.15
2018-09-25T05:38:15.843Z,11.15
2018-09-25T05:39:56.692Z,11.06
2018-09-25T05:41:37.622Z,11.10
2018-09-25T05:43:18.593Z,11.26
2018-09-25T05:44:59.567Z,11.31
2018-09-25T05:46:40.384Z,11.27
2018-09-25T05:48:21.414Z,11.40
2018-09-25T05:50:02.478Z,11.51
2018-09-25T05:51:43.389Z,11.59
2018-09-25T05:53:24.189Z,11.51
2018-09-25T05:55:05.015Z,11.65
2018-09-25T05:56:46.107Z,11.76
2018-09-25T05:58:26.992Z,11.75
2018-09-25T06:00:07.915Z,11.76
2018-09-25T06:01:48.719Z,11.81
2018-09-25T06:03:29.644Z,11.88
2018-09-25T06:05:10.818Z,11.99
2018-09-25T06:06:51.800Z,12.05
2018-09-25T06:08:32.951Z,11.99
2018-09-25T06:10:13.930Z,12.02
2018-09-25T06:11:54.719Z,11.87
2018-09-25T06:13:35.646Z,11.88
2018-09-25T06:15:16.527Z,12.05
2018-09-25T06:16:57.392Z,12.14
2018-09-25T06:18:38.342Z,12.21
2018-09-25T06:20:19.155Z,12.39
2018-09-25T06:22:00.077Z,12.12
2018-09-25T06:23:40.915Z,12.10
2018-09-25T06:25:21.885Z,12.14
2018-09-25T06:27:02.827Z,12.26
2018-09-25T06:28:43.695Z,12.43
2018-09-25T06:30:24.557Z,12.57
2018-09-25T06:32:05.361Z,12.41
2018-09-25T06:33:46.247Z,12.63
2018-09-25T06:35:27.096Z,12.67
2018-09-25T06:37:07.960Z,12.63
2018-09-25T06:38:48.817Z,12.79
2018-09-25T06:40:29.577Z,12.80
2018-09-25T06:42:10.478Z,12.91
2018-09-25T06:43:51.495Z,12.86
2018-09-25T06:45:32.427Z,12.86
2018-09-25T06:47:13.379Z,12.90
2018-09-25T06:48:54.146Z,13.08
2018-09-25T06:50:34.933Z,13.13
2018-09-25T06:52:15.792Z,13.15
2018-09-25T06:53:56.652Z,13.09
2018-09-25T06:55:37.673Z,12.94
2018-09-25T06:57:18.628Z,13.19
2018-09-25T06:58:59.555Z,13.20
2018-09-25T07:00:40.473Z,13.31
2018-09-25T07:02:21.431Z,13.05
2018-09-25T07:04:02.249Z,12.98
2018-09-25T07:05:43.153Z,13.25
2018-09-25T07:07:24.109Z,13.40
2018-09-25T07:09:05.090Z,13.37
2018-09-25T07:10:46.088Z,13.41
2018-09-25T07:12:26.901Z,13.50
2018-09-25T07:14:07.780Z,13.66
2018-09-25T07:15:48.674Z,13.66
2018-09-25T07:17:29.605Z,13.67
2018-09-25T07:19:10.765Z,13.78
2018-09-25T07:20:51.635Z,13.84
2018-09-25T07:22:32.459Z,13.72
2018-09-25T07:24:13.197Z,13.86
2018-09-25T07:25:54.172Z,13.85
2018-09-25T07:27:35.108Z,14.06
2018-09-25T07:29:15.933Z,13.86
2018-09-25T07:30:56.928Z,12.94
2018-09-25T07:32:37.866Z,13.80
2018-09-25T07:34:18.929Z,14.02
2018-09-25T07:35:59.939Z,14.08
2018-09-25T07:37:40.806Z,13.87
2018-09-25T07:39:21.855Z,13.46
2018-09-25T07:41:02.705Z,13.41
2018-09-25T07:42:43.566Z,13.32
2018-09-25T07:44:24.506Z,13.35
2018-09-25T07:46:05.391Z,13.32
2018-09-25T07:47:46.220Z,13.32
2018-09-25T07:49:27.222Z,13.33
2018-09-25T07:51:08.084Z,13.75
2018-09-25T07:52:48.896Z,13.55
2018-09-25T07:54:29.682Z,13.47
2018-09-25T07:56:10.594Z,13.60
2018-09-25T07:57:51.597Z,13.44
2018-09-25T07:59:32.503Z,13.38
2018-09-25T08:01:13.429Z,13.53
2018-09-25T08:02:54.238Z,13.84
2018-09-25T08:04:35.052Z,13.75
2018-09-25T08:06:15.860Z,13.70
2018-09-25T08:07:57.555Z,13.86
2018-09-25T08:09:38.372Z,13.76
2018-09-25T08:11:19.398Z,13.81
2018-09-25T08:13:00.260Z,13.74
2018-09-25T08:14:41.533Z,13.77
2018-09-25T08:16:22.371Z,13.70
2018-09-25T08:18:03.496Z,13.72
2018-09-25T08:19:44.246Z,13.85
2018-09-25T08:21:25.244Z,13.90
2018-09-25T08:23:06.128Z,13.77
2018-09-25T08:24:47.063Z,13.73
2018-09-25T08:26:28.096Z,14.06
2018-09-25T08:28:09.122Z,13.93
2018-09-25T08:29:51.409Z,13.98
2018-09-25T08:31:32.462Z,14.16
2018-09-25T08:33:13.505Z,14.07
2018-09-25T08:34:54.667Z,14.12
2018-09-25T08:36:35.729Z,14.22
2018-09-25T08:38:17.042Z,14.25
2018-09-25T08:39:58.429Z,14.36
2018-09-25T08:41:39.245Z,14.13
2018-09-25T08:43:20.116Z,14.29
2018-09-25T08:45:01.185Z,14.00
2018-09-25T08:46:42.031Z,13.89
2018-09-25T08:48:22.845Z,13.81
2018-09-25T08:50:03.749Z,13.76
2018-09-25T08:51:44.612Z,13.94
2018-09-25T08:53:25.448Z,13.89
2018-09-25T08:55:06.800Z,14.04
2018-09-25T08:56:48.716Z,14.09
2018-09-25T08:58:29.711Z,14.11
2018-09-25T09:00:10.749Z,14.11
2018-09-25T09:01:51.668Z,14.26
2018-09-25T09:03:32.478Z,14.19
2018-09-25T09:05:13.377Z,14.37
2018-09-25T09:06:54.310Z,14.34
2018-09-25T09:08:35.273Z,14.34
2018-09-25T09:10:23.129Z,14.31
2018-09-25T09:12:04.089Z,14.42
2018-09-25T09:13:45.192Z,14.57
2018-09-25T09:15:26.016Z,14.67
2018-09-25T09:17:06.821Z,14.45
2018-09-25T09:18:47.661Z,14.84
2018-09-25T09:20:28.528Z,14.50
2018-09-25T09:22:09.349Z,14.73
2018-09-25T09:23:50.133Z,14.73
2018-09-25T09:25:30.776Z,14.52
2018-09-25T09:27:11.638Z,14.73
2018-09-25T09:28:52.720Z,14.72
2018-09-25T09:30:34.233Z,14.65
2018-09-25T09:32:15.105Z,14.61
2018-09-25T09:33:55.899Z,14.48
2018-09-25T09:35:36.890Z,14.53
2018-09-25T09:37:17.884Z,14.72
2018-09-25T09:38:58.745Z,14.91
2018-09-25T09:40:39.681Z,14.96
2018-09-25T09:42:21.686Z,14.92
2018-09-25T09:44:02.666Z,14.90
2018-09-25T09:45:43.594Z,14.96
2018-09-25T09:47:24.427Z,15.15
2018-09-25T09:49:05.471Z,15.23
2018-09-25T09:50:46.327Z,15.10
2018-09-25T09:52:27.278Z,15.25
2018-09-25T09:54:08.119Z,15.05
2018-09-25T09:55:49.091Z,15.17
2018-09-25T09:57:30.075Z,14.94
2018-09-25T09:59:11.519Z,15.07
2018-09-25T10:00:52.402Z,14.95
2018-09-25T10:02:33.401Z,14.97
2018-09-25T10:04:14.261Z,14.93
2018-09-25T10:05:55.216Z,15.16
2018-09-25T10:07:36.106Z,15.10
2018-09-25T10:09:17.117Z,15.32
2018-09-25T10:10:57.934Z,15.62
2018-09-25T10:12:38.945Z,15.46
2018-09-25T10:14:19.821Z,15.54
2018-09-25T10:16:00.732Z,15.21
2018-09-25T10:17:41.772Z,15.15
2018-09-25T10:19:22.619Z,15.01
2018-09-25T10:21:03.653Z,15.19
2018-09-25T10:22:44.542Z,15.56
2018-09-25T10:24:25.537Z,15.56
2018-09-25T10:26:06.423Z,15.70
2018-09-25T10:27:47.252Z,15.83
2018-09-25T10:29:28.166Z,15.42
2018-09-25T10:31:09.014Z,15.64
2018-09-25T10:32:50.149Z,15.68
2018-09-25T10:34:32.112Z,15.94
2018-09-25T10:36:13.363Z,15.96
2018-09-25T10:37:54.257Z,16.04
2018-09-25T10:39:35.174Z,16.31
2018-09-25T10:41:16.016Z,16.25
2018-09-25T10:42:56.995Z,16.20
2018-09-25T10:44:37.890Z,16.25
2018-09-25T10:46:18.978Z,16.54
2018-09-25T10:47:59.862Z,16.42
2018-09-25T10:49:40.910Z,16.72
2018-09-25T10:51:21.750Z,16.55
2018-09-25T10:53:02.718Z,16.41
2018-09-25T10:54:43.530Z,16.14
2018-09-25T10:56:24.384Z,15.74
2018-09-25T10:58:05.350Z,15.82
2018-09-25T10:59:46.153Z,15.79
2018-09-25T11:01:27.173Z,15.65
2018-09-25T11:03:08.000Z,15.82
2018-09-25T11:04:48.707Z,15.78
2018-09-25T11:06:29.596Z,15.88
2018-09-25T11:08:10.434Z,15.98
2018-09-25T11:09:51.448Z,15.74
2018-09-25T11:11:32.525Z,15.73
2018-09-25T11:13:13.457Z,15.56
2018-09-25T11:14:54.316Z,15.73
2018-09-25T11:16:35.311Z,16.12
2018-09-25T11:18:16.188Z,16.22
2018-09-25T11:19:57.069Z,16.29
2018-09-25T11:21:37.859Z,16.40
2018-09-25T11:23:18.763Z,16.35
2018-09-25T11:24:59.759Z,16.49
2018-09-25T11:26:40.628Z,16.62
2018-09-25T11:28:21.589Z,16.61
2018-09-25T11:30:02.485Z,17.08
2018-09-25T11:31:43.298Z,17.18
2018-09-25T11:33:24.752Z,16.92
2018-09-25T11:35:05.623Z,17.33
2018-09-25T11:36:46.537Z,17.31
2018-09-25T11:38:27.446Z,17.61
2018-09-25T11:40:08.334Z,16.95
2018-09-25T11:41:49.188Z,16.38
2018-09-25T11:43:30.053Z,16.15
2018-09-25T11:45:11.192Z,15.71
2018-09-25T11:46:52.358Z,15.72
2018-09-25T11:48:33.139Z,15.80
2018-09-25T11:50:14.325Z,15.47
2018-09-25T11:51:55.410Z,15.57
2018-09-25T11:53:36.202Z,15.52
2018-09-25T11:55:17.210Z,15.74
2018-09-25T11:56:57.981Z,15.79
2018-09-25T11:58:38.924Z,15.99
2018-09-25T12:00:19.704Z,16.12
2018-09-25T12:02:00.607Z,16.38
2018-09-25T12:03:41.361Z,16.44
2018-09-25T12:05:23.359Z,16.70
2018-09-25T12:07:04.343Z,16.61
2018-09-25T12:08:45.223Z,16.95
2018-09-25T12:10:26.156Z,16.68
2018-09-25T12:12:07.115Z,16.76
2018-09-25T12:13:48.124Z,16.90
2018-09-25T12:15:29.052Z,17.26
2018-09-25T12:17:10.027Z,17.12
2018-09-25T12:18:50.997Z,17.33
2018-09-25T12:20:32.063Z,17.40
2018-09-25T12:22:12.881Z,17.16
2018-09-25T12:23:53.732Z,17.00
2018-09-25T12:25:34.672Z,16.97
2018-09-25T12:27:15.541Z,17.37
2018-09-25T12:28:56.528Z,17.61
2018-09-25T12:30:37.340Z,17.62
2018-09-25T12:32:18.513Z,17.12
2018-09-25T12:33:59.318Z,16.76
2018-09-25T12:35:40.134Z,16.58
2018-09-25T12:37:21.058Z,16.41
2018-09-25T12:39:02.103Z,16.23
2018-09-25T12:40:42.983Z,16.27
2018-09-25T12:42:23.830Z,16.20
2018-09-25T12:44:04.807Z,16.14
2018-09-25T12:45:45.683Z,16.17
2018-09-25T12:47:26.486Z,16.46
2018-09-25T12:49:07.464Z,16.82
2018-09-25T12:50:48.491Z,16.89
2018-09-25T12:52:29.362Z,17.11
2018-09-25T12:54:10.331Z,17.49
2018-09-25T12:55:51.381Z,17.63
2018-09-25T12:57:32.417Z,17.77
2018-09-25T12:59:13.326Z,17.96
2018-09-25T13:00:54.214Z,17.63
2018-09-25T13:02:35.188Z,17.43
2018-09-25T13:04:16.065Z,17.43
2018-09-25T13:05:56.907Z,17.37
2018-09-25T13:07:37.893Z,17.26
2018-09-25T13:09:18.766Z,16.88
2018-09-25T13:10:59.702Z,17.16
2018-09-25T13:12:40.553Z,17.02
2018-09-25T13:14:21.416Z,16.73
2018-09-25T13:16:02.323Z,16.83
2018-09-25T13:17:43.370Z,16.59
2018-09-25T13:19:24.582Z,16.52
2018-09-25T13:21:05.518Z,16.37
2018-09-25T13:22:46.551Z,16.28
2018-09-25T13:24:27.609Z,16.29
2018-09-25T13:26:08.509Z,16.12
2018-09-25T13:27:49.476Z,16.22
2018-09-25T13:29:30.367Z,16.13
2018-09-25T13:31:11.329Z,16.00
2018-09-25T13:32:52.138Z,16.15
2018-09-25T13:34:32.938Z,16.30
2018-09-25T13:36:13.881Z,16.36
2018-09-25T13:37:54.794Z,16.15
2018-09-25T13:39:35.823Z,16.20
2018-09-25T13:41:16.822Z,16.44
2018-09-25T13:42:57.581Z,16.23
2018-09-25T13:44:38.613Z,16.16
2018-09-25T13:46:19.469Z,16.07
2018-09-25T13:48:00.337Z,16.28
2018-09-25T13:49:41.176Z,16.33
2018-09-25T13:51:21.991Z,16.27
2018-09-25T13:53:02.855Z,16.38
2018-09-25T13:54:44.079Z,16.09
2018-09-25T13:56:24.895Z,15.92
2018-09-25T13:58:05.738Z,16.08
2018-09-25T13:59:46.626Z,16.05
2018-09-25T14:01:27.503Z,16.06
2018-09-25T14:03:08.363Z,15.96
2018-09-25T14:04:49.289Z,15.82
2018-09-25T14:06:30.236Z,16.16
2018-09-25T14:08:11.147Z,16.19
2018-09-25T14:09:51.923Z,16.24
2018-09-25T14:11:32.813Z,16.33
2018-09-25T14:13:13.667Z,16.28
2018-09-25T14:14:54.597Z,16.02
2018-09-25T14:16:36.041Z,15.99
2018-09-25T14:18:17.013Z,15.97
2018-09-25T14:19:57.847Z,16.00
2018-09-25T14:21:38.759Z,16.05
2018-09-25T14:23:19.717Z,16.13
2018-09-25T14:25:00.710Z,16.13
2018-09-25T14:26:41.562Z,16.19
2018-09-25T14:28:22.861Z,16.26
2018-09-25T14:30:04.074Z,16.49
2018-09-25T14:31:45.114Z,16.21
2018-09-25T14:33:26.167Z,16.09
2018-09-25T14:35:07.073Z,16.19
2018-09-25T14:36:48.450Z,16.31
2018-09-25T14:38:29.395Z,16.30
2018-09-25T14:40:10.577Z,16.40
2018-09-25T14:41:51.446Z,16.46
2018-09-25T14:43:32.359Z,16.73
2018-09-25T14:45:13.301Z,16.68
2018-09-25T14:46:54.123Z,16.65
2018-09-25T14:48:35.105Z,16.19
2018-09-25T14:50:15.941Z,16.64
2018-09-25T14:51:56.746Z,16.49
2018-09-25T14:53:37.605Z,16.32
2018-09-25T14:55:18.728Z,16.59
2018-09-25T14:56:59.651Z,16.62
2018-09-25T14:58:40.745Z,16.47
2018-09-25T15:00:21.706Z,16.31
2018-09-25T15:02:02.733Z,16.25
2018-09-25T15:03:43.782Z,16.07
2018-09-25T15:05:24.686Z,16.05
2018-09-25T15:07:05.578Z,16.02
2018-09-25T15:08:46.620Z,16.11
2018-09-25T15:10:27.521Z,16.00
2018-09-25T15:12:08.318Z,16.04
2018-09-25T15:13:49.286Z,16.21
2018-09-25T15:15:30.237Z,16.04
2018-09-25T15:17:11.078Z,15.87
2018-09-25T15:18:52.016Z,15.87
2018-09-25T15:20:32.873Z,15.82
2018-09-25T15:22:14.068Z,15.85
2018-09-25T15:23:54.696Z,15.66
2018-09-25T15:25:35.523Z,15.88
2018-09-25T15:27:16.384Z,15.83
2018-09-25T15:28:57.240Z,15.77
2018-09-25T15:30:38.186Z,15.62
2018-09-25T15:32:19.069Z,15.57
2018-09-25T15:33:59.927Z,15.40
2018-09-25T15:35:40.942Z,15.34
2018-09-25T15:37:21.727Z,15.40
2018-09-25T15:39:02.574Z,15.38
2018-09-25T15:40:43.447Z,15.45
2018-09-25T15:42:24.185Z,15.39
2018-09-25T15:44:05.054Z,15.28
2018-09-25T15:45:45.861Z,15.26
2018-09-25T15:47:27.445Z,15.13
2018-09-25T15:49:08.585Z,15.13
2018-09-25T15:50:49.549Z,15.10
2018-09-25T15:52:30.458Z,15.07
2018-09-25T15:54:11.461Z,14.97
2018-09-25T15:55:52.316Z,15.01
2018-09-25T15:57:33.369Z,15.05
2018-09-25T15:59:14.348Z,15.00
2018-09-25T16:00:55.389Z,14.95
2018-09-25T16:02:36.346Z,14.80
2018-09-25T16:04:17.342Z,14.82
2018-09-25T16:05:58.202Z,14.81
2018-09-25T16:07:39.071Z,14.88
2018-09-25T16:09:23.362Z,14.72
2018-09-25T16:11:04.935Z,14.70
2018-09-25T16:12:46.309Z,14.70
2018-09-25T16:14:27.213Z,14.61
2018-09-25T16:16:08.145Z,14.61
2018-09-25T16:17:49.394Z,14.06
2018-09-25T16:19:30.322Z,14.44
2018-09-25T16:21:11.184Z,14.51
2018-09-25T16:22:52.143Z,14.52
2018-09-25T16:24:33.469Z,14.45
2018-09-25T16:26:14.364Z,14.25
2018-09-25T16:27:56.762Z,14.23
2018-09-25T16:29:37.859Z,14.33
2018-09-25T16:31:18.765Z,14.22
2018-09-25T16:32:59.723Z,14.16
2018-09-25T16:34:40.960Z,14.19
2018-09-25T16:36:21.925Z,14.01
2018-09-25T16:38:03.081Z,14.12
2018-09-25T16:39:43.972Z,14.13
2018-09-25T16:41:24.829Z,14.01
2018-09-25T16:43:05.704Z,13.83
2018-09-25T16:44:47.274Z,13.81
2018-09-25T16:46:28.148Z,13.73
2018-09-25T16:48:09.049Z,13.69
2018-09-25T16:49:50.014Z,13.59
2018-09-25T16:51:30.810Z,13.64
2018-09-25T16:53:12.042Z,13.55
2018-09-25T16:54:54.364Z,13.51
2018-09-25T16:56:35.299Z,13.46
2018-09-25T16:58:16.228Z,13.42
2018-09-25T16:59:57.057Z,13.31
2018-09-25T17:01:37.969Z,13.26
2018-09-25T17:03:18.870Z,13.19
2018-09-25T17:04:59.826Z,13.12
2018-09-25T17:06:41.177Z,13.15
2018-09-25T17:08:21.987Z,13.08
2018-09-25T17:10:02.913Z,13.03
2018-09-25T17:11:43.776Z,12.99
2018-09-25T17:13:24.981Z,12.94
2018-09-25T17:15:06.123Z,12.90
2018-09-25T17:16:47.040Z,12.80
2018-09-25T17:18:27.957Z,12.74
2018-09-25T17:20:08.946Z,12.78
2018-09-25T17:21:50.652Z,12.76
2018-09-25T17:23:31.606Z,12.74
2018-09-25T17:25:13.532Z,12.65
2018-09-25T17:26:54.888Z,12.56
2018-09-25T17:28:35.774Z,12.52
2018-09-25T17:30:16.917Z,12.45
2018-09-25T17:31:57.949Z,12.58
2018-09-25T17:33:38.871Z,12.58
2018-09-25T17:35:19.765Z,12.44
2018-09-25T17:37:00.944Z,12.35
2018-09-25T17:38:42.047Z,12.38
2018-09-25T17:40:22.913Z,12.38
2018-09-25T17:42:03.712Z,12.38
2018-09-25T17:43:44.639Z,12.50
2018-09-25T17:45:25.659Z,12.52
2018-09-25T17:47:06.552Z,12.51
2018-09-25T17:48:47.452Z,12.44
2018-09-25T17:50:28.292Z,12.41
2018-09-25T17:52:09.179Z,12.34
2018-09-25T17:53:50.002Z,12.46
2018-09-25T17:55:30.889Z,12.52
2018-09-25T17:57:11.896Z,12.42
2018-09-25T17:58:52.718Z,12.33
2018-09-25T18:00:33.555Z,12.13
2018-09-25T18:02:14.334Z,12.30
2018-09-25T18:03:55.250Z,12.26
2018-09-25T18:05:36.521Z,12.02
2018-09-25T18:07:17.799Z,11.90
2018-09-25T18:08:59.222Z,11.93
2018-09-25T18:10:39.976Z,11.90
2018-09-25T18:12:20.905Z,11.75
2018-09-25T18:14:01.785Z,11.82
2018-09-25T18:15:43.139Z,11.87
2018-09-25T18:17:24.743Z,11.79
2018-09-25T18:19:05.880Z,11.82
2018-09-25T18:20:46.768Z,11.83
2018-09-25T18:22:27.781Z,11.74
2018-09-25T18:24:08.603Z,11.67
2018-09-25T18:25:49.396Z,11.69
2018-09-25T18:27:30.233Z,11.82
2018-09-25T18:29:11.060Z,11.76
2018-09-25T18:30:52.085Z,11.68
2018-09-25T18:32:33.049Z,11.63
2018-09-25T18:34:14.047Z,11.48
2018-09-25T18:35:55.060Z,11.39
2018-09-25T18:37:36.130Z,11.45
2018-09-25T18:39:16.960Z,11.50
2018-09-25T18:40:58.011Z,11.53
2018-09-25T18:42:39.064Z,11.42
2018-09-25T18:44:20.019Z,11.40
2018-09-25T18:46:01.169Z,11.38
2018-09-25T18:47:42.491Z,11.34
2018-09-25T18:49:23.344Z,11.32
2018-09-25T18:51:04.294Z,11.38
2018-09-25T18:52:45.688Z,11.34
2018-09-25T18:54:26.649Z,11.28
2018-09-25T18:56:07.463Z,11.32
2018-09-25T18:57:49.216Z,11.24
2018-09-25T18:59:30.261Z,11.29
2018-09-25T19:01:11.080Z,11.23
2018-09-25T19:02:52.011Z,11.15
2018-09-25T19:04:33.435Z,11.22
2018-09-25T19:06:14.640Z,11.25
2018-09-25T19:07:55.458Z,11.30
2018-09-25T19:09:36.355Z,11.38
2018-09-25T19:11:17.359Z,11.34
2018-09-25T19:12:58.286Z,11.30
2018-09-25T19:14:39.139Z,11.27
2018-09-25T19:16:20.054Z,11.20
2018-09-25T19:18:01.111Z,11.14
2018-09-25T19:19:42.012Z,11.04
2018-09-25T19:21:22.877Z,11.02
2018-09-25T19:23:03.653Z,10.88
2018-09-25T19:24:44.547Z,10.77
2018-09-25T19:26:25.623Z,10.82
2018-09-25T19:28:06.418Z,10.93
2018-09-25T19:29:47.232Z,10.87
2018-09-25T19:31:28.237Z,10.83
2018-09-25T19:33:09.147Z,10.76
2018-09-25T19:34:50.117Z,10.77
2018-09-25T19:36:31.092Z,10.74
2018-09-25T19:38:23.101Z,10.70
2018-09-25T19:40:03.954Z,10.74
2018-09-25T19:41:44.789Z,10.81
2018-09-25T19:43:25.822Z,10.79
2018-09-25T19:45:06.771Z,10.89
2018-09-25T19:46:47.779Z,10.90
2018-09-25T19:48:28.792Z,10.89
2018-09-25T19:50:09.699Z,10.97
2018-09-25T19:51:50.759Z,10.95
2018-09-25T19:53:31.756Z,10.73
2018-09-25T19:55:12.643Z,10.88
2018-09-25T19:56:53.736Z,10.88
2018-09-25T19:58:34.587Z,10.79
2018-09-25T20:00:15.914Z,10.81
2018-09-25T20:01:56.980Z,10.73
2018-09-25T20:03:37.886Z,10.70
2018-09-25T20:05:18.718Z,10.91
2018-09-25T20:06:59.658Z,10.84
2018-09-25T20:08:40.457Z,10.70
2018-09-25T20:10:21.430Z,10.71
2018-09-25T20:12:02.328Z,10.73
2018-09-25T20:13:43.356Z,10.71
2018-09-25T20:15:24.264Z,10.62
2018-09-25T20:17:05.252Z,10.56
2018-09-25T20:18:46.083Z,10.51
2018-09-25T20:20:26.902Z,10.52
2018-09-25T20:22:07.801Z,10.44
2018-09-25T20:23:48.805Z,10.44
2018-09-25T20:25:29.679Z,10.35
2018-09-25T20:27:10.480Z,10.35
2018-09-25T20:28:51.347Z,10.22
2018-09-25T20:30:32.270Z,10.10
2018-09-25T20:32:13.144Z,10.06
2018-09-25T20:33:54.154Z,10.13
2018-09-25T20:35:35.009Z,10.23
2018-09-25T20:37:16.399Z,10.31
2018-09-25T20:38:57.378Z,10.40
2018-09-25T20:40:38.265Z,10.28
2018-09-25T20:42:19.141Z,10.23
2018-09-25T20:43:59.982Z,10.32
2018-09-25T20:45:40.959Z,10.38
2018-09-25T20:47:21.827Z,10.32
2018-09-25T20:49:02.822Z,10.16
2018-09-25T20:50:43.757Z,10.15
2018-09-25T20:52:24.525Z,10.20
2018-09-25T20:54:05.522Z,10.12
2018-09-25T20:55:46.424Z,10.11
2018-09-25T20:57:27.278Z,10.07
2018-09-25T20:59:08.211Z,10.07
2018-09-25T21:00:49.288Z,10.01
2018-09-25T21:02:30.318Z,10.10
2018-09-25T21:04:11.194Z,9.97
2018-09-25T21:05:52.041Z,9.90
2018-09-25T21:07:32.982Z,9.89
2018-09-25T21:09:14.565Z,9.69
2018-09-25T21:10:55.766Z,9.99
2018-09-25T21:12:36.576Z,10.00
2018-09-25T21:14:17.498Z,10.13
2018-09-25T21:15:58.370Z,10.11
2018-09-25T21:17:39.204Z,9.91
2018-09-25T21:19:20.077Z,9.81
2018-09-25T21:21:00.901Z,9.80
2018-09-25T21:22:41.896Z,9.97
2018-09-25T21:24:22.683Z,9.98
2018-09-25T21:26:03.643Z,9.95
2018-09-25T21:27:44.661Z,9.98
2018-09-25T21:29:25.504Z,9.99
2018-09-25T21:31:06.492Z,9.86
2018-09-25T21:32:47.500Z,9.68
2018-09-25T21:34:28.421Z,9.59
2018-09-25T21:36:09.455Z,9.60
2018-09-25T21:37:50.756Z,9.59
2018-09-25T21:39:31.673Z,9.59
2018-09-25T21:41:13.066Z,9.61